Airfield :







YOU CAN JOIN US ON...

 
LOGIN :

Register | Disclaimer

   EN    FR    IT 

 









Legend :    VFR   Marginal VFR   IFR   Intensive IFR   Very Intensive IFR
Visi :
Ceiling :
>= 8 km
>= 3000ft
5 to 8 km
1000 to 3000 ft
1500m to 5 km
500 to 1000 ft
800 to 1500m
200 to 500 ft
< 800m
< 200 ft
Symbols :   Thunderstorms  Fog  Heavy snow  Heavy precipitations  Wind > 20 kt






- Airport Elevation : 84 ft
- IATA code : YJT


CYJT - Stephenville

CURRENT METAR :
  • 250000Z 00000KT 15SM FEW250 19/08 A3018 RMK CI1 CI TR SLP224 DENSITY ALT 300FT

EXPIRED METARs :
  • 242300Z 34004KT 310V010 15SM FEW150 19/09 A3018 RMK AC1 AC TR SLP222 DENSITY ALT 300FT
  • 242200Z 33004KT 270V360 15SM FEW025 FEW220 21/11 A3017 RMK SC1CI1 SC TR CI TR SLP220 DENSITY ALT 500FT
  • 242100Z 32007KT 15SM FEW030 SCT250 22/11 A3017 RMK CU1CI3 CU TR SLP220 DENSITY ALT 700FT
  • 242000Z 33007KT 15SM FEW030 FEW250 23/13 A3017 RMK CU1CI1 CI TR SLP219 DENSITY ALT 800FT

TAF TAF CYJT
Valid from the 25 at 00:00 until the 26 at 00:00 UTC


242340Z 2500/2524 34005KT P6SM FEW030 FEW150
FM250200 06005KT P6SM SKC
BECMG 2513/2515 28010KT SCT200 RMK NXT FCST BY 250600Z
CZQX FIR / North America



MET'MAP, your aeronautical weather chart ! - Copyright ORBIFLY December 2007 - Disclaimer

ORBIFLY MET'MAP TEAM :

Programming & Development : Alexandra Zaïnal
Original concept : Baudouin d'Aumeries
Technical & hardware support : Manuel Goepfert
Assistance : Marc-Olivier Méhu




SOURCES & CREDITS :

   NOAA